sensor_id;sensor_type;location;lat;lon;timestamp;pressure;altitude;pressure_sealevel;temperature;humidity
32735;BME280;19112;51.076;3.706;2023-08-06T03:05:26;99959.38;;;13.96;98.85
32735;BME280;19112;51.076;3.706;2023-08-06T03:08:43;100045.88;;;14.52;98.87
32735;BME280;19112;51.076;3.706;2023-08-06T03:11:15;100409.84;;;16.54;99.40
32735;BME280;19112;51.076;3.706;2023-08-06T03:13:49;100054.56;;;14.28;99.48
32735;BME280;19112;51.076;3.706;2023-08-06T03:16:17;99968.09;;;13.85;99.56
32735;BME280;19112;51.076;3.706;2023-08-06T03:18:45;99876.44;;;13.43;99.38
32735;BME280;19112;51.076;3.706;2023-08-06T03:21:13;100388.56;;;16.16;100.00
32735;BME280;19112;51.076;3.706;2023-08-06T03:23:41;99995.41;;;13.92;99.76
32735;BME280;19112;51.076;3.706;2023-08-06T03:26:08;99797.78;;;12.75;99.83
32735;BME280;19112;51.076;3.706;2023-08-06T03:28:39;100200.31;;;15.23;100.00
32735;BME280;19112;51.076;3.706;2023-08-06T03:31:05;100249.78;;;15.46;100.00
32735;BME280;19112;51.076;3.706;2023-08-06T03:33:32;100294.88;;;15.71;100.00
32735;BME280;19112;51.076;3.706;2023-08-06T03:36:00;99983.03;;;13.83;100.00
32735;BME280;19112;51.076;3.706;2023-08-06T03:38:27;100177.34;;;15.09;99.99
32735;BME280;19112;51.076;3.706;2023-08-06T03:40:54;100178.22;;;15.07;99.85
32735;BME280;19112;51.076;3.706;2023-08-06T03:43:21;100309.88;;;15.72;99.66
32735;BME280;19112;51.076;3.706;2023-08-06T03:45:46;100181.78;;;15.09;99.56
32735;BME280;19112;51.076;3.706;2023-08-06T03:48:13;100196.78;;;15.14;99.37
32735;BME280;19112;51.076;3.706;2023-08-06T03:50:39;100054.59;;;14.40;98.98
32735;BME280;19112;51.076;3.706;2023-08-06T03:53:07;100104.00;;;14.59;98.86
32735;BME280;19112;51.076;3.706;2023-08-06T03:55:33;100324.06;;;15.89;98.50
32735;BME280;19112;51.076;3.706;2023-08-06T03:58:00;100388.63;;;16.45;98.18
32735;BME280;19112;51.076;3.706;2023-08-06T04:00:28;100181.81;;;15.19;97.78
32735;BME280;19112;51.076;3.706;2023-08-06T04:02:53;100190.59;;;15.14;97.61
32735;BME280;19112;51.076;3.706;2023-08-06T04:05:19;100130.44;;;14.58;97.52
32735;BME280;19112;51.076;3.706;2023-08-06T04:07:45;100256.78;;;15.37;97.88
32735;BME280;19112;51.076;3.706;2023-08-06T04:10:13;100073.84;;;14.18;97.69
32735;BME280;19112;51.076;3.706;2023-08-06T04:12:40;100388.47;;;15.91;98.31
32735;BME280;19112;51.076;3.706;2023-08-06T04:15:20;100193.97;;;14.85;97.98
32735;BME280;19112;51.076;3.706;2023-08-06T04:18:29;100178.03;;;14.67;98.09
32735;BME280;19112;51.076;3.706;2023-08-06T04:21:24;100592.88;;;16.91;98.03
32735;BME280;19112;51.076;3.706;2023-08-06T04:27:30;100173.56;;;14.55;97.80
32735;BME280;19112;51.076;3.706;2023-08-06T04:30:58;100213.28;;;14.71;98.00
32735;BME280;19112;51.076;3.706;2023-08-06T04:34:07;100583.13;;;16.88;97.82
32735;BME280;19112;51.076;3.706;2023-08-06T04:40:17;100112.28;;;13.83;97.37
32735;BME280;19112;51.076;3.706;2023-08-06T04:43:23;100266.91;;;14.57;97.93
32735;BME280;19112;51.076;3.706;2023-08-06T04:46:01;100011.28;;;12.93;97.71
32735;BME280;19112;51.076;3.706;2023-08-06T04:48:32;100629.88;;;16.68;97.87
32735;BME280;19112;51.076;3.706;2023-08-06T04:51:42;100627.31;;;16.72;97.83
32735;BME280;19112;51.076;3.706;2023-08-06T04:54:20;100032.44;;;13.04;97.62
32735;BME280;19112;51.076;3.706;2023-08-06T04:56:53;100298.59;;;14.59;97.47
32735;BME280;19112;51.076;3.706;2023-08-06T04:59:29;100108.41;;;13.40;97.65
32735;BME280;19112;51.076;3.706;2023-08-06T05:02:01;100304.63;;;14.44;97.95
32735;BME280;19112;51.076;3.706;2023-08-06T05:04:29;100285.31;;;14.48;97.87
32735;BME280;19112;51.076;3.706;2023-08-06T05:06:58;100242.72;;;14.10;97.64
32735;BME280;19112;51.076;3.706;2023-08-06T05:09:29;100163.25;;;13.78;97.48
32735;BME280;19112;51.076;3.706;2023-08-06T05:12:05;100670.50;;;16.67;97.88
32735;BME280;19112;51.076;3.706;2023-08-06T05:14:52;100299.34;;;14.44;97.43
32735;BME280;19112;51.076;3.706;2023-08-06T05:17:18;100614.69;;;16.30;98.22
32735;BME280;19112;51.076;3.706;2023-08-06T05:20:25;100255.16;;;14.25;97.82
32735;BME280;19112;51.076;3.706;2023-08-06T05:22:55;100517.31;;;15.89;98.16
32735;BME280;19112;51.076;3.706;2023-08-06T05:25:48;100342.75;;;14.74;97.77
32735;BME280;19112;51.076;3.706;2023-08-06T05:28:23;99964.41;;;12.62;97.66
32735;BME280;19112;51.076;3.706;2023-08-06T05:31:29;100234.75;;;14.02;98.15
32735;BME280;19112;51.076;3.706;2023-08-06T05:34:06;100234.84;;;14.14;98.19
32735;BME280;19112;51.076;3.706;2023-08-06T05:37:23;100692.81;;;17.01;98.46
32735;BME280;19112;51.076;3.706;2023-08-06T05:39:49;100225.22;;;14.20;98.06
32735;BME280;19112;51.076;3.706;2023-08-06T05:42:28;100700.84;;;17.19;98.39
32735;BME280;19112;51.076;3.706;2023-08-06T05:44:57;100112.22;;;13.71;97.54
32735;BME280;19112;51.076;3.706;2023-08-06T05:47:29;100711.50;;;17.28;97.93
32735;BME280;19112;51.076;3.706;2023-08-06T05:50:10;100335.06;;;15.04;97.92
32735;BME280;19112;51.076;3.706;2023-08-06T05:53:24;100241.38;;;14.59;97.68
32735;BME280;19112;51.076;3.706;2023-08-06T05:56:10;100754.00;;;17.44;96.92
32735;BME280;19112;51.076;3.706;2023-08-06T05:58:44;100366.09;;;15.31;97.13
32735;BME280;19112;51.076;3.706;2023-08-06T06:01:25;100617.41;;;16.47;96.78
32735;BME280;19112;51.076;3.706;2023-08-06T06:04:19;100259.56;;;14.23;96.70
32735;BME280;19112;51.076;3.706;2023-08-06T06:07:06;100409.97;;;15.03;97.29
32735;BME280;19112;51.076;3.706;2023-08-06T06:09:35;100178.88;;;13.53;97.44
32735;BME280;19112;51.076;3.706;2023-08-06T06:12:06;100403.72;;;14.92;98.58
32735;BME280;19112;51.076;3.706;2023-08-06T06:14:36;100394.16;;;15.09;99.05
32735;BME280;19112;51.076;3.706;2023-08-06T06:17:28;100403.03;;;15.20;99.53
32735;BME280;19112;51.076;3.706;2023-08-06T06:20:07;100307.56;;;14.76;99.79
32735;BME280;19112;51.076;3.706;2023-08-06T06:22:54;100454.59;;;15.81;98.84
32735;BME280;19112;51.076;3.706;2023-08-06T06:25:52;100179.22;;;13.95;96.94
32735;BME280;19112;51.076;3.706;2023-08-06T06:28:24;100769.72;;;16.98;96.48
32735;BME280;19112;51.076;3.706;2023-08-06T06:31:11;100445.91;;;14.81;96.25
32735;BME280;19112;51.076;3.706;2023-08-06T06:33:40;100803.22;;;16.85;96.35
32735;BME280;19112;51.076;3.706;2023-08-06T06:36:28;100164.19;;;13.02;96.15
32735;BME280;19112;51.076;3.706;2023-08-06T06:39:26;100194.56;;;13.43;96.60
32735;BME280;19112;51.076;3.706;2023-08-06T06:41:58;100294.41;;;13.85;97.05
32735;BME280;19112;51.076;3.706;2023-08-06T06:44:27;100365.34;;;14.41;97.83
32735;BME280;19112;51.076;3.706;2023-08-06T06:46:56;100834.34;;;17.14;98.85
32735;BME280;19112;51.076;3.706;2023-08-06T06:49:26;100419.59;;;14.92;98.71
32735;BME280;19112;51.076;3.706;2023-08-06T06:52:18;100827.44;;;17.46;99.09
32735;BME280;19112;51.076;3.706;2023-08-06T06:54:47;100821.28;;;17.50;98.80
32735;BME280;19112;51.076;3.706;2023-08-06T06:57:23;100843.47;;;17.63;98.41
32735;BME280;19112;51.076;3.706;2023-08-06T07:00:04;100496.00;;;15.69;97.54
32735;BME280;19112;51.076;3.706;2023-08-06T07:02:36;100708.72;;;17.04;98.59
32735;BME280;19112;51.076;3.706;2023-08-06T07:05:29;100320.03;;;14.94;97.41
32735;BME280;19112;51.076;3.706;2023-08-06T07:08:34;100501.50;;;16.06;97.71
32735;BME280;19112;51.076;3.706;2023-08-06T07:11:07;100518.34;;;16.14;97.63
32735;BME280;19112;51.076;3.706;2023-08-06T07:13:36;100356.44;;;15.41;97.23
32735;BME280;19112;51.076;3.706;2023-08-06T07:16:54;100632.69;;;17.01;95.70
32735;BME280;19112;51.076;3.706;2023-08-06T07:19:25;100497.91;;;15.87;95.11
32735;BME280;19112;51.076;3.706;2023-08-06T07:21:58;100513.94;;;16.15;94.79
32735;BME280;19112;51.076;3.706;2023-08-06T07:24:32;100520.09;;;16.17;94.31
32735;BME280;19112;51.076;3.706;2023-08-06T07:27:20;100506.81;;;16.08;93.66
32735;BME280;19112;51.076;3.706;2023-08-06T07:29:55;100525.31;;;16.03;93.26
32735;BME280;19112;51.076;3.706;2023-08-06T07:32:24;100404.03;;;15.35;93.16
32735;BME280;19112;51.076;3.706;2023-08-06T07:35:28;100522.69;;;16.05;93.57
32735;BME280;19112;51.076;3.706;2023-08-06T07:37:58;100508.38;;;15.72;92.71
32735;BME280;19112;51.076;3.706;2023-08-06T07:41:27;100876.34;;;17.85;93.01
32735;BME280;19112;51.076;3.706;2023-08-06T07:43:56;100878.00;;;17.65;93.05
32735;BME280;19112;51.076;3.706;2023-08-06T07:46:33;100872.69;;;17.68;94.00
32735;BME280;19112;51.076;3.706;2023-08-06T07:49:03;100505.41;;;15.34;93.59
32735;BME280;19112;51.076;3.706;2023-08-06T07:51:38;100894.84;;;17.73;94.97
32735;BME280;19112;51.076;3.706;2023-08-06T07:54:24;100870.91;;;17.68;94.85
32735;BME280;19112;51.076;3.706;2023-08-06T07:56:55;100588.88;;;16.02;94.45
32735;BME280;19112;51.076;3.706;2023-08-06T07:59:24;100869.22;;;17.83;94.96
32735;BME280;19112;51.076;3.706;2023-08-06T08:02:24;100501.31;;;15.74;93.37
32735;BME280;19112;51.076;3.706;2023-08-06T08:05:29;100888.78;;;17.97;93.38
32735;BME280;19112;51.076;3.706;2023-08-06T08:08:34;100714.84;;;16.88;92.67
32735;BME280;19112;51.076;3.706;2023-08-06T08:11:07;100529.72;;;15.98;92.49
32735;BME280;19112;51.076;3.706;2023-08-06T08:13:53;100421.38;;;15.01;91.56
32735;BME280;19112;51.076;3.706;2023-08-06T08:16:23;100550.78;;;15.78;91.18
32735;BME280;19112;51.076;3.706;2023-08-06T08:19:07;100395.00;;;15.02;91.91
32735;BME280;19112;51.076;3.706;2023-08-06T08:21:52;100470.31;;;15.56;91.95
32735;BME280;19112;51.076;3.706;2023-08-06T08:24:43;100537.78;;;16.19;91.42
32735;BME280;19112;51.076;3.706;2023-08-06T08:27:21;100455.41;;;15.66;91.21
32735;BME280;19112;51.076;3.706;2023-08-06T08:29:55;100906.53;;;18.09;90.89
32735;BME280;19112;51.076;3.706;2023-08-06T08:32:22;100291.47;;;14.47;90.25
32735;BME280;19112;51.076;3.706;2023-08-06T08:38:53;100893.16;;;17.86;90.88
32735;BME280;19112;51.076;3.706;2023-08-06T08:41:54;100530.97;;;15.33;91.63
32735;BME280;19112;51.076;3.706;2023-08-06T08:47:58;100421.16;;;14.73;93.05
32735;BME280;19112;51.076;3.706;2023-08-06T08:50:51;100195.22;;;13.25;93.01
32735;BME280;19112;51.076;3.706;2023-08-06T08:53:48;100417.56;;;14.65;93.37
32735;BME280;19112;51.076;3.706;2023-08-06T08:56:56;100551.19;;;15.27;93.62
32735;BME280;19112;51.076;3.706;2023-08-06T09:00:30;100571.66;;;15.48;94.18
32735;BME280;19112;51.076;3.706;2023-08-06T09:03:23;100542.44;;;15.34;93.98
32735;BME280;19112;51.076;3.706;2023-08-06T09:06:58;100428.31;;;14.83;93.81
32735;BME280;19112;51.076;3.706;2023-08-06T09:10:12;100947.09;;;17.72;93.64
32735;BME280;19112;51.076;3.706;2023-08-06T09:13:22;100252.22;;;13.91;93.06
32735;BME280;19112;51.076;3.706;2023-08-06T09:16:07;100437.28;;;15.02;92.45
32735;BME280;19112;51.076;3.706;2023-08-06T09:19:08;100967.50;;;17.84;92.10
32735;BME280;19112;51.076;3.706;2023-08-06T09:22:53;100377.84;;;14.54;90.74
32735;BME280;19112;51.076;3.706;2023-08-06T09:26:33;100972.91;;;17.98;91.12
32735;BME280;19112;51.076;3.706;2023-08-06T09:29:58;100598.91;;;15.39;92.10
32735;BME280;19112;51.076;3.706;2023-08-06T09:33:17;100488.22;;;14.83;93.68
32735;BME280;19112;51.076;3.706;2023-08-06T09:36:28;101002.91;;;17.83;94.88
32735;BME280;19112;51.076;3.706;2023-08-06T09:39:43;101019.06;;;18.18;94.64
32735;BME280;19112;51.076;3.706;2023-08-06T09:53:22;100524.22;;;14.73;92.99
32735;BME280;19112;51.076;3.706;2023-08-06T09:56:52;100456.84;;;14.34;93.67
32735;BME280;19112;51.076;3.706;2023-08-06T10:00:16;100460.53;;;14.47;94.02
32735;BME280;19112;51.076;3.706;2023-08-06T10:03:28;100649.09;;;15.33;92.97
32735;BME280;19112;51.076;3.706;2023-08-06T10:06:52;100646.63;;;15.45;92.71
32735;BME280;19112;51.076;3.706;2023-08-06T10:10:09;100559.06;;;15.19;92.88
32735;BME280;19112;51.076;3.706;2023-08-06T10:14:08;100642.53;;;15.78;91.29
32735;BME280;19112;51.076;3.706;2023-08-06T10:21:38;100484.06;;;15.12;89.09
32735;BME280;19112;51.076;3.706;2023-08-06T10:28:57;100489.25;;;15.00;89.39
32735;BME280;19112;51.076;3.706;2023-08-06T10:38:28;100706.25;;;16.02;88.29
32735;BME280;19112;51.076;3.706;2023-08-06T10:46:28;101060.47;;;17.83;88.70
32735;BME280;19112;51.076;3.706;2023-08-06T10:50:15;100694.44;;;15.65;89.95
32735;BME280;19112;51.076;3.706;2023-08-06T10:53:58;101095.72;;;17.63;90.70
32735;BME280;19112;51.076;3.706;2023-08-06T11:01:16;101088.31;;;17.28;92.80
32735;BME280;19112;51.076;3.706;2023-08-06T11:04:42;101104.97;;;17.12;93.69
32735;BME280;19112;51.076;3.706;2023-08-06T11:58:09;101124.41;;;18.07;88.35
32735;BME280;19112;51.076;3.706;2023-08-06T12:01:07;100739.66;;;15.86;88.04
32735;BME280;19112;51.076;3.706;2023-08-06T12:03:38;100793.38;;;16.70;88.28
32735;BME280;19112;51.076;3.706;2023-08-06T12:06:28;100737.63;;;16.61;87.82
32735;BME280;19112;51.076;3.706;2023-08-06T12:09:06;100627.78;;;16.09;86.94
32735;BME280;19112;51.076;3.706;2023-08-06T12:12:47;100708.38;;;16.43;86.59
32735;BME280;19112;51.076;3.706;2023-08-06T12:15:23;100818.59;;;17.44;86.89
32735;BME280;19112;51.076;3.706;2023-08-06T12:18:09;100807.84;;;17.18;85.72
32735;BME280;19112;51.076;3.706;2023-08-06T12:21:18;100968.44;;;17.92;85.50
32735;BME280;19112;51.076;3.706;2023-08-06T12:23:47;101155.78;;;18.65;86.02
32735;BME280;19112;51.076;3.706;2023-08-06T12:26:33;100804.69;;;16.48;85.93
32735;BME280;19112;51.076;3.706;2023-08-06T12:29:49;100780.19;;;16.75;88.20
32735;BME280;19112;51.076;3.706;2023-08-06T12:32:30;101149.75;;;19.04;87.39
32735;BME280;19112;51.076;3.706;2023-08-06T12:35:30;100806.88;;;17.04;85.75
32735;BME280;19112;51.076;3.706;2023-08-06T12:38:19;100820.94;;;16.89;84.65
32735;BME280;19112;51.076;3.706;2023-08-06T12:40:58;100814.91;;;17.13;84.35
32735;BME280;19112;51.076;3.706;2023-08-06T12:43:25;101169.38;;;19.49;84.85
32735;BME280;19112;51.076;3.706;2023-08-06T12:46:00;100756.09;;;16.47;83.82
32735;BME280;19112;51.076;3.706;2023-08-06T12:48:41;100741.75;;;16.21;85.66
32735;BME280;19112;51.076;3.706;2023-08-06T12:51:28;101056.00;;;17.78;85.50
32735;BME280;19112;51.076;3.706;2023-08-06T12:54:23;101089.53;;;17.67;86.63
32735;BME280;19112;51.076;3.706;2023-08-06T12:57:12;100983.50;;;16.82;88.66
32735;BME280;19112;51.076;3.706;2023-08-06T13:00:29;101191.97;;;18.43;90.65
32735;BME280;19112;51.076;3.706;2023-08-06T13:02:56;100624.25;;;15.14;89.81
32735;BME280;19112;51.076;3.706;2023-08-06T13:05:37;101128.09;;;18.32;89.21
32735;BME280;19112;51.076;3.706;2023-08-06T13:08:55;100723.66;;;15.76;89.59
32735;BME280;19112;51.076;3.706;2023-08-06T13:12:35;101215.94;;;18.46;88.93
32735;BME280;19112;51.076;3.706;2023-08-06T13:15:24;100707.72;;;15.69;88.10
32735;BME280;19112;51.076;3.706;2023-08-06T13:18:16;100883.97;;;16.27;88.84
32735;BME280;19112;51.076;3.706;2023-08-06T13:21:30;101133.72;;;17.59;90.32
32735;BME280;19112;51.076;3.706;2023-08-06T13:28:20;101258.25;;;18.21;92.52
32735;BME280;19112;51.076;3.706;2023-08-06T13:31:57;100912.22;;;16.24;91.63
32735;BME280;19112;51.076;3.706;2023-08-06T13:35:00;100899.25;;;15.75;91.90
32735;BME280;19112;51.076;3.706;2023-08-06T13:40:52;100828.06;;;15.29;92.68
32735;BME280;19112;51.076;3.706;2023-08-06T13:43:56;101249.97;;;17.85;92.64
32735;BME280;19112;51.076;3.706;2023-08-06T13:46:52;101118.22;;;17.11;91.32
32735;BME280;19112;51.076;3.706;2023-08-06T13:49:42;100942.97;;;16.13;89.91
32735;BME280;19112;51.076;3.706;2023-08-06T13:52:18;101117.75;;;17.53;88.27
32735;BME280;19112;51.076;3.706;2023-08-06T13:55:00;100773.94;;;15.73;87.10
32735;BME280;19112;51.076;3.706;2023-08-06T13:57:58;101273.03;;;18.98;87.37
32735;BME280;19112;51.076;3.706;2023-08-06T14:00:31;100847.22;;;16.66;85.43
32735;BME280;19112;51.076;3.706;2023-08-06T14:03:40;100860.78;;;16.98;84.43
32735;BME280;19112;51.076;3.706;2023-08-06T14:06:06;101271.47;;;19.46;84.18
32735;BME280;19112;51.076;3.706;2023-08-06T14:08:58;100924.88;;;17.61;83.92
32735;BME280;19112;51.076;3.706;2023-08-06T14:12:59;100846.81;;;17.27;81.23
32735;BME280;19112;51.076;3.706;2023-08-06T14:15:55;100830.75;;;17.02;79.22
32735;BME280;19112;51.076;3.706;2023-08-06T14:18:21;100946.97;;;17.57;78.75
32735;BME280;19112;51.076;3.706;2023-08-06T14:21:16;100922.09;;;17.40;79.24
32735;BME280;19112;51.076;3.706;2023-08-06T14:23:48;100846.03;;;17.42;79.56
32735;BME280;19112;51.076;3.706;2023-08-06T14:27:34;100979.09;;;17.97;78.46
32735;BME280;19112;51.076;3.706;2023-08-06T14:30:49;101285.69;;;19.47;78.45
32735;BME280;19112;51.076;3.706;2023-08-06T14:34:01;100963.91;;;17.73;78.90
32735;BME280;19112;51.076;3.706;2023-08-06T14:42:18;101025.25;;;18.17;78.72
32735;BME280;19112;51.076;3.706;2023-08-06T14:45:13;101204.75;;;19.06;76.22
32735;BME280;19112;51.076;3.706;2023-08-06T14:47:43;101196.78;;;19.03;74.29
32735;BME280;19112;51.076;3.706;2023-08-06T14:50:12;101338.06;;;19.54;77.16
32735;BME280;19112;51.076;3.706;2023-08-06T14:52:39;100971.81;;;17.68;76.15
32735;BME280;19112;51.076;3.706;2023-08-06T14:55:27;100987.69;;;17.59;75.87
32735;BME280;19112;51.076;3.706;2023-08-06T14:58:00;100995.47;;;17.32;77.49
32735;BME280;19112;51.076;3.706;2023-08-06T15:00:29;101345.94;;;19.25;76.38
32735;BME280;19112;51.076;3.706;2023-08-06T15:02:57;100791.81;;;15.95;75.78
32735;BME280;19112;51.076;3.706;2023-08-06T15:13:58;101342.41;;;19.32;76.14
32735;BME280;19112;51.076;3.706;2023-08-06T15:53:17;101153.22;;;17.63;74.50
32735;BME280;19112;51.076;3.706;2023-08-06T16:01:58;101241.56;;;18.33;73.54
32735;BME280;19112;51.076;3.706;2023-08-06T16:57:10;101348.97;;;21.19;70.30
32735;BME280;19112;51.076;3.706;2023-08-06T16:59:36;101342.75;;;20.22;70.11
32735;BME280;19112;51.076;3.706;2023-08-06T17:02:02;101163.88;;;18.88;72.54
32735;BME280;19112;51.076;3.706;2023-08-06T17:04:43;101443.22;;;20.25;73.89
32735;BME280;19112;51.076;3.706;2023-08-06T17:07:09;101252.53;;;18.83;74.31
32735;BME280;19112;51.076;3.706;2023-08-06T17:09:41;101183.09;;;18.42;71.67
